Forside
METAR-TAF:

METAR-TAF

Lufthavne :

Olieplatform

Euro, Holland

Breddekreds: 51-59-52N, længdekreds: 3-16-30E, højde: 18 m

Aktuelle vejr

Denne rapport blev lavet for 38 minutter siden, kl. 02:25 UTC
Vind 9 kt fra vest
Temperatur 13°C
Fugtighed 88%
Tryk 1033 hPa
Sigt 10 km eller mere

METAR: EHSA 250225Z AUTO 26009KT 9999 ///////// 13/11 Q1033 W10/H7

Tid: 05:03 (03:03 UTC)


TAF: fraværende

Vejrobservationer og prognoser fra mere end 4000 lufthavne (METAR og TAF).

De gule og røde prikker repræsenterer de meteorologiske stationer.

Flyt musen over at se navnet på stationen.

Så klik over at se vejr observationer og prognoser.

At skifte det kort: Klik på de grønne knapper med et sort kors for at zoome ind; på den grønne knap med en bindestreg for at zoome ud; eller på de grønne pile for tilstødende kort.


METAR-TAF: